الصفحة الرئيسية
METAR-TAF:

METAR-TAF

مطار :

أوشويا, الأرجنتين

دائرة عرض: 54-48S, خط طول: 068-19W, ارتفاع: 16 متر

مراقبة الطقس الحالي

تاريخ ووقت الإصدار 37 دقيقة قبل الساعة 09:00UTC
رياح هادئة
درجة الحرارة 5°درجة مئوية
الرطوبة 75%
ضغط 1000 hPa
الرؤية 10 كم أو أكثر
غيوم قليلة على ارتفاع 4000 قدم

METAR: SAWH 140900Z 00000KT 9999 FEW040 05/01 Q1000

زمن: 06:37 (09:37 UTC)

توقعات

تاريخ ووقت الإصدار 4ساعات و 37 دقيقة قبل الساعة 05:00UTC
التوقعات صالحة من14 الساعة 06 UTC إلى 15 الساعة 06 UTC
ريح 10 عقدة من الغرب
الرؤية 10 كم أو أكثر
غيوم متفرقة على ارتفاع 3500 قدم
غيوم مفككة على ارتفاع 7000 قدم
أصبح
من 14 الساعة 12 UTC إلى 14 الساعة 15 UTC
ريح 15 عقدة من الشمال الغربي تتزايد حتى 25 عقدة
أصبح
من 14 الساعة 16 UTC إلى 14 الساعة 18 UTC
ريح 10 عقدة من الشمال
الرؤية: 8000 متر
غيوم مفككة على ارتفاع 3000 قدم
ملبد بالغيوم على ارتفاع 4500 قدم
مطر

TAF: SAWH 140500Z 1406/1506 27010KT 9999 SCT035 BKN070 TX14/1418Z TN04/1410Z BECMG 1412/1415 32015G25KT BECMG 1416/1418 36010KT 8000 RA BKN030 OVC045

أرصاد الطقس والتوقعات من أكثر من 4000 مطار (تقارير الطقس للمطار METAR والتنبؤ بالطقس بالمطارTAF).

المحطات المتاحة هي النقط الصفراء والحمراء على الخريطة.

حرك المؤشر فوق النقطة لمعرفة اسم المحطة.

ثم انقر لمعرفة أرصاد وتوقعات الطقس.

لتغيير الخارطة: اضغط على الأزرار الخضراء مع رمز الصليب الأسود للتكبير. على الزر الأخضر مع شرطة للتصغير، أو على الأسهم الخضراء للخرائط المجاورة.


METAR-TAF: